Time;durP1;ratioP1;P1;durP2;ratioP2;P2;SDS_P1;SDS_P2;PMS_P1;PMS_P2;Temp;Humidity;BMP_temperature;BMP_pressure;BME280_temperature;BME280_humidity;BME280_pressure;Samples;Min_cycle;Max_cycle;Signal;HPM_P1;HPM_P2
2021/11/24 00:01:44;;;;;;;24.65;19.63;;;;;;;6.87;85.02;101682.31;5044162;28;20384;-76
2021/11/24 00:04:09;;;;;;;23.08;17.45;;;;;;;6.85;85.12;101684.00;5041677;28;20037;-76
2021/11/24 00:06:35;;;;;;;23.38;19.17;;;;;;;6.86;85.11;101682.25;5044495;28;20041;-77
2021/11/24 00:09:00;;;;;;;22.30;18.95;;;;;;;6.91;85.06;101678.91;5042388;28;20134;-77
2021/11/24 00:11:27;;;;;;;27.23;17.75;;;;;;;6.94;85.01;101683.34;5043531;28;20071;-77
2021/11/24 00:13:52;;;;;;;25.00;18.42;;;;;;;6.91;85.47;101685.88;5042580;28;20491;-76
2021/11/24 00:16:17;;;;;;;20.52;17.27;;;;;;;6.94;85.13;101678.09;5039944;28;20040;-77
2021/11/24 00:18:43;;;;;;;21.13;17.75;;;;;;;6.85;85.43;101676.13;5042477;28;20500;-77
2021/11/24 00:21:08;;;;;;;20.63;16.33;;;;;;;6.85;85.13;101673.50;5043941;28;20033;-77
2021/11/24 00:23:34;;;;;;;20.55;16.80;;;;;;;6.87;85.24;101682.31;5041607;28;20048;-77
2021/11/24 00:26:00;;;;;;;21.15;17.45;;;;;;;6.87;85.06;101677.06;5044403;28;20139;-77
2021/11/24 00:28:26;;;;;;;21.77;17.02;;;;;;;6.83;84.99;101682.16;5041257;28;20033;-77
2021/11/24 00:30:51;;;;;;;19.75;16.63;;;;;;;6.80;85.49;101677.72;5043502;28;20075;-77
2021/11/24 00:33:16;;;;;;;22.55;18.00;;;;;;;6.82;85.30;101676.03;5040883;28;20064;-77
2021/11/24 00:35:42;;;;;;;22.05;16.85;;;;;;;6.86;85.39;101667.38;5041474;28;20454;-77
2021/11/24 00:38:07;;;;;;;23.80;18.42;;;;;;;6.82;85.49;101665.53;5040470;28;20124;-77
2021/11/24 00:40:32;;;;;;;22.98;17.73;;;;;;;6.85;85.56;101662.13;5043309;28;20060;-76
2021/11/24 00:42:58;;;;;;;20.45;17.55;;;;;;;6.75;85.86;101659.22;5040197;28;20060;-77
2021/11/24 00:45:23;;;;;;;23.23;17.73;;;;;;;6.62;86.53;101650.97;5042726;28;20102;-76
2021/11/24 00:47:49;;;;;;;22.30;17.33;;;;;;;6.65;86.36;101648.44;5042052;28;20037;-77
2021/11/24 00:50:15;;;;;;;23.50;17.33;;;;;;;6.64;86.26;101657.16;5042070;28;20052;-77
2021/11/24 00:52:40;;;;;;;23.85;18.58;;;;;;;6.61;86.78;101655.34;5040918;28;20495;-77
2021/11/24 00:55:06;;;;;;;23.92;17.67;;;;;;;6.64;87.11;101662.41;5043423;28;20123;-76
2021/11/24 00:57:31;;;;;;;23.70;17.92;;;;;;;6.59;87.30;101663.16;5040220;28;20080;-76
2021/11/24 00:59:57;;;;;;;23.00;16.70;;;;;;;6.56;86.98;101664.81;5044174;28;20036;-76
2021/11/24 01:02:22;;;;;;;23.20;18.13;;;;;;;6.59;87.20;101654.41;5039473;28;20127;-76
2021/11/24 01:04:48;;;;;;;23.02;17.23;;;;;;;6.57;87.55;101649.09;5043031;28;20124;-76
2021/11/24 01:07:13;;;;;;;22.23;18.88;;;;;;;6.67;87.34;101649.38;5041337;28;20049;-76
2021/11/24 01:09:39;;;;;;;23.52;18.45;;;;;;;6.74;86.75;101648.69;5042659;28;20040;-76
2021/11/24 01:12:05;;;;;;;25.15;18.67;;;;;;;6.69;86.96;101647.69;5041707;28;20040;-77
2021/11/24 01:14:31;;;;;;;25.77;18.85;;;;;;;6.63;87.04;101653.66;5041792;28;20488;-77
2021/11/24 01:16:56;;;;;;;23.80;16.80;;;;;;;6.65;86.92;101651.94;5042463;28;20051;-76
2021/11/24 01:19:22;;;;;;;22.00;16.92;;;;;;;6.70;86.64;101654.69;5041184;28;20026;-77
2021/11/24 01:21:47;;;;;;;24.17;18.02;;;;;;;6.73;86.76;101657.41;5043001;28;20493;-77
2021/11/24 01:24:13;;;;;;;21.52;16.67;;;;;;;6.75;86.68;101659.22;5040282;28;20038;-77
2021/11/24 01:26:38;;;;;;;21.95;16.48;;;;;;;6.78;86.58;101647.91;5043572;28;20025;-77
2021/11/24 01:29:04;;;;;;;22.58;17.00;;;;;;;6.67;86.54;101659.88;5038845;28;20037;-76
2021/11/24 01:31:30;;;;;;;24.25;18.35;;;;;;;6.76;86.38;101652.25;5036768;28;20032;-77
2021/11/24 01:33:55;;;;;;;23.45;17.38;;;;;;;6.75;86.48;101656.59;5038961;28;20056;-76
2021/11/24 01:36:21;;;;;;;24.08;17.48;;;;;;;6.79;85.85;101652.34;5040230;28;20038;-77
2021/11/24 01:38:47;;;;;;;23.42;17.63;;;;;;;6.76;85.82;101657.50;5042318;28;20480;-76
2021/11/24 01:41:13;;;;;;;24.27;16.98;;;;;;;6.73;86.40;101652.16;5041321;28;20033;-76
2021/11/24 01:43:38;;;;;;;23.42;18.38;;;;;;;6.71;86.38;101653.88;5037683;28;20373;-76
2021/11/24 01:46:04;;;;;;;24.55;17.05;;;;;;;6.73;85.98;101652.16;5041571;28;20044;-76
2021/11/24 01:48:29;;;;;;;24.38;17.45;;;;;;;6.70;86.54;101644.22;5039672;28;20132;-76
2021/11/24 01:50:55;;;;;;;26.27;19.92;;;;;;;6.68;86.64;101645.88;5037920;28;20045;-76
2021/11/24 01:53:21;;;;;;;21.08;16.70;;;;;;;6.65;86.36;101648.44;5039763;28;20054;-77
2021/11/24 01:55:47;;;;;;;25.25;18.15;;;;;;;6.67;86.82;101636.25;5042765;28;20040;-77
2021/11/24 01:58:13;;;;;;;25.10;19.42;;;;;;;6.61;86.63;101630.84;5039667;28;20041;-76
2021/11/24 02:00:38;;;;;;;25.08;19.00;;;;;;;6.68;86.34;101632.78;5043166;28;20052;-76
2021/11/24 02:03:06;;;;;;;28.13;19.45;;;;;;;6.71;86.56;101632.88;5039476;28;20030;-76
2021/11/24 02:05:32;;;;;;;25.55;17.80;;;;;;;6.70;86.46;101624.09;5041481;28;20036;-76
2021/11/24 02:07:58;;;;;;;26.67;19.20;;;;;;;6.66;86.45;101624.88;5039675;28;20033;-77
2021/11/24 02:10:24;;;;;;;24.30;18.08;;;;;;;6.56;86.63;101623.72;5042336;28;20036;-76
2021/11/24 02:12:50;;;;;;;23.92;17.60;;;;;;;6.62;86.39;101622.13;5041479;28;20032;-77
2021/11/24 02:15:16;;;;;;;25.52;19.38;;;;;;;6.56;86.92;101615.88;5046744;28;20042;-77
2021/11/24 02:17:41;;;;;;;25.52;18.98;;;;;;;6.55;86.96;101616.72;5046924;28;20030;-76
2021/11/24 02:20:14;;;;;;;23.95;17.77;;;;;;;6.66;86.29;101613.50;5041787;28;20125;-77
2021/11/24 02:22:40;;;;;;;27.50;19.42;;;;;;;6.64;86.60;101605.56;5041602;28;20134;-76
2021/11/24 02:25:05;;;;;;;22.85;17.25;;;;;;;6.68;86.19;101614.41;5040792;28;20527;-76
2021/11/24 02:27:31;;;;;;;29.70;20.15;;;;;;;6.61;86.50;101613.38;5040978;28;20041;-76
2021/11/24 02:29:56;;;;;;;26.83;19.30;;;;;;;6.56;86.38;101596.63;5041549;28;20037;-76
2021/11/24 02:32:21;;;;;;;26.58;18.88;;;;;;;6.56;87.11;101599.25;5040087;28;20115;-76
2021/11/24 02:34:47;;;;;;;26.98;19.25;;;;;;;6.57;86.76;101603.63;5041803;28;20049;-77
2021/11/24 02:37:13;;;;;;;26.67;19.63;;;;;;;6.58;86.94;101606.31;5039501;28;20045;-76
2021/11/24 02:39:38;;;;;;;23.55;18.60;;;;;;;6.64;86.99;101604.69;5042807;28;20033;-76
2021/11/24 02:42:04;;;;;;;25.77;17.60;;;;;;;6.72;86.89;101608.41;5035102;28;20499;-76
2021/11/24 02:44:39;;;;;;;25.35;18.67;;;;;;;6.72;86.12;101603.16;5040840;28;20033;-76
2021/11/24 02:47:14;;;;;;;27.08;18.98;;;;;;;6.70;86.32;101594.34;5037452;28;20038;-77
2021/11/24 02:49:46;;;;;;;27.55;18.55;;;;;;;6.72;86.21;101597.91;5035923;28;20458;-76
2021/11/24 02:52:12;;;;;;;25.15;18.92;;;;;;;6.65;86.36;101599.47;5039315;28;20033;-76
2021/11/24 02:54:38;;;;;;;29.15;19.70;;;;;;;6.67;86.19;101595.16;5038877;28;20579;-77
2021/11/24 02:57:07;;;;;;;29.60;18.50;;;;;;;6.68;86.02;101594.34;5041029;28;20131;-76
2021/11/24 02:59:33;;;;;;;27.42;19.92;;;;;;;6.72;86.10;101597.91;5035897;28;20033;-77
2021/11/24 03:01:59;;;;;;;25.80;18.40;;;;;;;6.71;86.05;101599.66;5041821;28;20043;-77
2021/11/24 03:04:28;;;;;;;25.08;17.70;;;;;;;6.70;85.70;101597.88;5039828;28;20045;-77
2021/11/24 03:06:58;;;;;;;27.27;20.20;;;;;;;6.68;86.32;101596.97;5041801;28;20045;-77
2021/11/24 03:09:24;;;;;;;28.55;19.83;;;;;;;6.61;86.33;101594.13;5034529;28;20037;-76
2021/11/24 03:11:50;;;;;;;28.20;18.88;;;;;;;6.58;86.51;101590.56;5039901;28;20029;-77
2021/11/24 03:14:15;;;;;;;28.15;20.02;;;;;;;6.57;86.64;101582.66;5040162;28;20041;-77
2021/11/24 03:16:41;;;;;;;30.88;21.83;;;;;;;6.56;86.70;101583.50;5042033;28;20033;-77
2021/11/24 03:19:06;;;;;;;27.50;18.98;;;;;;;6.59;86.35;101584.47;5039783;28;20048;-77
2021/11/24 03:21:31;;;;;;;26.98;18.65;;;;;;;6.58;86.45;101587.94;5046025;28;20048;-77
2021/11/24 03:23:57;;;;;;;29.20;20.95;;;;;;;6.59;86.88;101581.84;5042426;28;20033;-76
2021/11/24 03:26:22;;;;;;;33.70;23.13;;;;;;;6.59;87.12;101576.59;5045117;28;20075;-77
2021/11/24 03:28:47;;;;;;;30.30;21.08;;;;;;;6.61;87.17;101574.03;5039781;28;20399;-77
2021/11/24 03:31:13;;;;;;;33.22;23.55;;;;;;;6.54;87.58;101575.59;5043565;28;20033;-77
2021/11/24 03:33:38;;;;;;;32.97;21.90;;;;;;;6.54;87.82;101575.59;5043785;28;20056;-76
2021/11/24 03:36:04;;;;;;;32.22;22.00;;;;;;;6.62;87.60;101569.66;5041251;28;20073;-76
2021/11/24 03:38:29;;;;;;;37.47;23.60;;;;;;;6.61;87.63;101568.78;5042991;28;20037;-76
2021/11/24 03:40:55;;;;;;;34.47;21.48;;;;;;;6.65;87.71;101572.34;5043718;28;20043;-76
2021/11/24 03:43:20;;;;;;;34.63;24.02;;;;;;;6.64;87.95;101565.34;5041943;28;20470;-76
2021/11/24 03:45:46;;;;;;;28.70;20.30;;;;;;;6.63;87.96;101571.44;5044549;28;20044;-76
2021/11/24 03:48:11;;;;;;;28.90;20.17;;;;;;;6.57;87.75;101573.03;5041830;28;20510;-76
2021/11/24 03:50:38;;;;;;;29.95;20.88;;;;;;;6.66;87.69;101574.16;5044956;28;20380;-77
2021/11/24 03:53:03;;;;;;;30.88;20.55;;;;;;;6.72;87.36;101563.81;5038356;28;20029;-76
2021/11/24 03:55:29;;;;;;;31.40;20.85;;;;;;;6.70;87.41;101561.13;5041414;28;20415;-77
2021/11/24 03:57:54;;;;;;;30.20;21.15;;;;;;;6.76;86.97;101568.31;5043351;28;20099;-76
2021/11/24 04:00:25;;;;;;;30.48;21.67;;;;;;;6.66;87.57;101561.91;5042998;28;20033;-77
2021/11/24 04:02:51;;;;;;;30.77;20.60;;;;;;;6.71;87.73;101573.44;5044042;28;20048;-76
2021/11/24 04:05:16;;;;;;;28.25;20.38;;;;;;;6.76;87.93;101570.94;5042696;28;20032;-76
2021/11/24 04:07:42;;;;;;;28.42;20.55;;;;;;;6.78;87.38;101563.97;5043438;28;20057;-77
2021/11/24 04:10:09;;;;;;;30.45;21.63;;;;;;;6.77;87.18;101562.19;5043524;28;20032;-77
2021/11/24 04:12:35;;;;;;;31.02;21.80;;;;;;;6.77;87.61;101565.69;5042443;28;20052;-77
2021/11/24 04:15:00;;;;;;;34.10;22.58;;;;;;;6.73;87.35;101569.13;5042433;28;20099;-76
2021/11/24 04:17:26;;;;;;;27.48;19.83;;;;;;;6.74;87.26;101565.63;5042214;28;20029;-77
2021/11/24 04:19:52;;;;;;;29.08;20.38;;;;;;;6.69;87.42;101561.13;5044436;28;20418;-76
2021/11/24 04:22:17;;;;;;;30.20;21.90;;;;;;;6.76;87.71;101560.44;5041557;28;20033;-77
2021/11/24 04:24:43;;;;;;;33.50;22.85;;;;;;;6.73;87.31;101563.88;5044708;28;20037;-77
2021/11/24 04:27:08;;;;;;;31.73;22.08;;;;;;;6.81;87.41;101564.03;5041350;28;20059;-77
2021/11/24 04:29:34;;;;;;;31.02;21.77;;;;;;;6.83;87.38;101556.22;5044480;28;20455;-76
2021/11/24 04:31:59;;;;;;;29.27;20.88;;;;;;;6.87;87.44;101560.72;5041778;28;20037;-76
2021/11/24 04:34:25;;;;;;;31.83;23.67;;;;;;;6.85;87.08;101562.41;5043509;28;20041;-77
2021/11/24 04:36:50;;;;;;;30.70;20.88;;;;;;;6.90;87.06;101555.53;5041070;28;20036;-76
2021/11/24 04:39:16;;;;;;;29.65;21.17;;;;;;;6.91;87.07;101558.16;5042871;28;20037;-76
2021/11/24 04:41:41;;;;;;;31.80;22.02;;;;;;;6.86;86.87;101548.41;5042912;28;20445;-77
2021/11/24 04:44:07;;;;;;;32.65;21.65;;;;;;;6.86;87.32;101544.03;5041943;28;20041;-77
2021/11/24 04:46:32;;;;;;;29.45;21.02;;;;;;;6.93;87.20;101547.72;5035945;28;20030;-76
2021/11/24 04:48:57;;;;;;;29.48;21.40;;;;;;;6.94;86.73;101547.78;5043649;28;20036;-77
2021/11/24 04:51:23;;;;;;;34.42;22.45;;;;;;;6.88;86.78;101547.59;5040535;28;20496;-77
2021/11/24 04:53:48;;;;;;;36.72;23.30;;;;;;;6.88;86.53;101549.34;5038731;28;20037;-77
2021/11/24 04:56:14;;;;;;;31.35;21.45;;;;;;;6.85;87.11;101542.28;5040418;28;20041;-77
2021/11/24 04:59:02;;;;;;;33.88;21.92;;;;;;;6.84;87.18;101543.16;5044061;28;20044;-77
2021/11/24 05:01:26;;;;;;;33.72;22.50;;;;;;;6.76;87.44;101537.69;5039719;28;20050;-77
2021/11/24 05:03:52;;;;;;;34.65;24.27;;;;;;;6.69;87.61;101533.13;5042692;28;20036;-76
2021/11/24 05:06:19;;;;;;;30.60;21.90;;;;;;;6.68;87.87;101535.72;5037213;28;20034;-76
2021/11/24 05:08:45;;;;;;;29.63;20.52;;;;;;;6.70;87.71;101536.66;5039623;28;20040;-77
2021/11/24 05:11:13;;;;;;;30.52;21.65;;;;;;;6.70;88.33;101541.88;5037183;28;20033;-77
2021/11/24 05:13:45;;;;;;;35.35;23.27;;;;;;;6.66;88.32;101551.44;5043641;28;20041;-77
2021/11/24 05:16:11;;;;;;;34.40;19.73;;;;;;;6.59;87.95;101544.22;5040193;28;20065;-76
2021/11/24 05:18:39;;;;;;;35.67;23.70;;;;;;;6.51;88.85;101545.78;5035848;28;20092;-77
2021/11/24 05:21:18;;;;;;;40.75;23.48;;;;;;;6.57;89.04;101541.56;5035798;28;20447;-77
2021/11/24 05:23:44;;;;;;;32.53;22.05;;;;;;;6.55;89.02;101538.03;5041264;28;20402;-77
2021/11/24 05:26:10;;;;;;;36.78;24.80;;;;;;;6.60;88.81;101543.38;5042310;28;20116;-77
2021/11/24 05:28:37;;;;;;;33.20;22.33;;;;;;;6.67;88.80;101547.06;5041844;28;20064;-77
2021/11/24 05:31:03;;;;;;;34.50;22.30;;;;;;;6.64;88.79;101547.88;5040335;28;20030;-76
2021/11/24 05:33:28;;;;;;;35.60;22.42;;;;;;;6.67;88.56;101545.31;5042068;28;20055;-77
2021/11/24 05:35:54;;;;;;;35.15;23.92;;;;;;;6.71;88.79;101535.81;5041805;28;20049;-77
2021/11/24 05:38:19;;;;;;;36.70;22.00;;;;;;;6.77;88.34;101538.59;5038878;28;20064;-76
2021/11/24 05:40:45;;;;;;;28.73;20.13;;;;;;;6.79;88.11;101536.91;5043282;28;20070;-77
2021/11/24 05:43:13;;;;;;;33.58;22.77;;;;;;;6.76;87.47;101537.69;5036283;28;20591;-76
2021/11/24 05:45:48;;;;;;;30.15;20.88;;;;;;;6.87;88.30;101545.84;5035824;28;20037;-77
2021/11/24 05:48:13;;;;;;;30.27;21.05;;;;;;;6.92;87.83;101538.97;5031363;28;20655;-77
2021/11/24 05:50:40;;;;;;;34.15;23.05;;;;;;;6.95;87.66;101539.03;5026389;28;20108;-77
2021/11/24 05:53:06;;;;;;;39.55;23.13;;;;;;;6.92;87.26;101538.97;5039944;28;20039;-77
2021/11/24 05:55:31;;;;;;;32.90;22.52;;;;;;;6.86;87.65;101538.78;5034859;28;20500;-77
2021/11/24 05:57:56;;;;;;;32.20;22.00;;;;;;;6.85;87.47;101537.03;5032578;28;20568;-77
2021/11/24 06:00:22;;;;;;;35.75;23.60;;;;;;;6.82;87.78;101536.97;5039314;28;20037;-76
2021/11/24 06:02:48;;;;;;;34.33;22.02;;;;;;;6.85;87.21;101539.66;5040238;28;20040;-76
2021/11/24 06:05:14;;;;;;;33.42;23.23;;;;;;;6.80;87.43;101538.66;5039667;28;20037;-77
2021/11/24 06:07:39;;;;;;;30.48;21.33;;;;;;;6.79;87.88;101543.03;5037054;28;20083;-77
2021/11/24 06:10:07;;;;;;;33.55;21.95;;;;;;;6.79;87.44;101545.66;5039276;28;20049;-77
2021/11/24 06:12:33;;;;;;;32.30;22.10;;;;;;;6.80;88.01;101546.53;5027428;28;20052;-76
2021/11/24 06:14:58;;;;;;;29.13;20.10;;;;;;;6.87;87.92;101545.84;5036149;28;20547;-76
2021/11/24 06:17:23;;;;;;;30.63;21.75;;;;;;;6.88;87.77;101550.22;5039027;28;20455;-77
2021/11/24 06:19:49;;;;;;;36.05;24.75;;;;;;;6.86;87.33;101544.03;5039699;28;20032;-76
2021/11/24 06:22:14;;;;;;;31.83;21.20;;;;;;;6.92;87.04;101545.97;5036856;28;20044;-76
2021/11/24 06:24:40;;;;;;;33.90;22.75;;;;;;;6.90;87.43;101539.78;5039205;28;20036;-76
2021/11/24 06:27:05;;;;;;;30.35;21.60;;;;;;;6.91;86.92;101542.44;5037409;28;20037;-76
2021/11/24 06:29:31;;;;;;;33.10;23.08;;;;;;;6.95;87.54;101539.03;5040573;28;20044;-76
2021/11/24 06:31:56;;;;;;;33.72;23.17;;;;;;;6.99;87.02;101534.75;5039239;28;20029;-76
2021/11/24 06:34:22;;;;;;;33.90;22.38;;;;;;;7.01;86.84;101539.19;5042119;28;20090;-77
2021/11/24 06:36:47;;;;;;;36.38;22.88;;;;;;;6.95;86.94;101539.03;5039892;28;20037;-77
2021/11/24 06:39:13;;;;;;;41.10;25.98;;;;;;;6.93;86.81;101535.50;5041630;28;20044;-76
2021/11/24 06:41:39;;;;;;;36.53;24.67;;;;;;;6.95;87.19;101538.16;5040379;28;20108;-76
2021/11/24 06:44:04;;;;;;;36.15;24.00;;;;;;;6.99;86.92;101537.38;5040612;28;20042;-77
2021/11/24 06:46:30;;;;;;;35.22;22.98;;;;;;;6.99;86.96;101540.00;5039789;28;20043;-77
2021/11/24 06:48:55;;;;;;;37.20;25.13;;;;;;;7.01;87.10;101543.56;5040344;28;20564;-76
2021/11/24 06:51:20;;;;;;;33.13;21.70;;;;;;;7.02;86.65;101546.22;5041868;28;20032;-76
2021/11/24 06:53:46;;;;;;;34.60;22.52;;;;;;;7.02;86.79;101542.69;5039667;28;20044;-77
2021/11/24 06:56:11;;;;;;;32.30;21.88;;;;;;;7.00;86.97;101545.28;5046209;28;20045;-77
2021/11/24 06:58:37;;;;;;;37.22;25.08;;;;;;;6.96;87.30;101545.19;5042766;28;20037;-75
2021/11/24 07:01:02;;;;;;;35.25;23.30;;;;;;;7.01;86.98;101544.44;5044665;28;20033;-77
2021/11/24 07:03:28;;;;;;;41.25;25.05;;;;;;;6.93;87.23;101543.34;5042986;28;20484;-76
2021/11/24 07:05:55;;;;;;;37.92;22.55;;;;;;;6.92;87.77;101540.72;5045494;28;20056;-76
2021/11/24 07:08:21;;;;;;;40.85;25.70;;;;;;;6.90;87.89;101539.78;5038651;28;20052;-76
2021/11/24 07:10:47;;;;;;;38.92;24.13;;;;;;;6.92;87.73;101538.09;5043247;28;20484;-77
2021/11/24 07:13:12;;;;;;;40.28;24.00;;;;;;;6.83;88.37;101543.09;5033309;28;20084;-77
2021/11/24 07:15:37;;;;;;;38.35;23.85;;;;;;;6.87;88.25;101543.22;5044067;28;20044;-77
2021/11/24 07:18:03;;;;;;;36.85;23.58;;;;;;;6.86;87.95;101545.78;5040325;28;20029;-76
2021/11/24 07:20:28;;;;;;;38.70;23.63;;;;;;;6.92;88.21;101543.34;5042110;28;20042;-76
2021/11/24 07:22:55;;;;;;;41.25;23.20;;;;;;;6.94;88.18;101544.25;5044954;28;20036;-76
2021/11/24 07:25:20;;;;;;;37.45;23.38;;;;;;;6.95;87.79;101544.28;5041126;28;20040;-76
2021/11/24 07:27:46;;;;;;;35.55;21.45;;;;;;;6.96;87.33;101546.06;5038170;28;20038;-77
2021/11/24 07:30:12;;;;;;;33.47;20.88;;;;;;;6.98;87.38;101541.75;5038511;28;20033;-76
2021/11/24 07:32:37;;;;;;;36.55;22.35;;;;;;;6.91;87.61;101537.19;5048113;28;20120;-76
2021/11/24 07:35:05;;;;;;;36.60;20.92;;;;;;;7.00;87.23;101539.16;5042115;28;20124;-76
2021/11/24 07:37:30;;;;;;;35.30;22.67;;;;;;;6.97;87.63;101539.97;5045265;28;20399;-76
2021/11/24 07:39:56;;;;;;;32.85;19.52;;;;;;;7.01;87.29;101533.06;5042686;28;20044;-75
2021/11/24 07:42:21;;;;;;;31.10;19.35;;;;;;;7.09;86.70;101536.75;5044433;28;20107;-76
2021/11/24 07:44:47;;;;;;;31.73;19.05;;;;;;;7.15;86.52;101541.25;5043346;28;20037;-77
2021/11/24 07:47:12;;;;;;;37.53;22.88;;;;;;;7.23;87.11;101534.44;5043563;28;20044;-76
2021/11/24 07:49:38;;;;;;;42.33;27.38;;;;;;;7.31;86.58;101535.53;5039332;28;20033;-77
2021/11/24 07:52:04;;;;;;;40.70;28.75;;;;;;;7.31;86.17;101535.53;5042399;28;20048;-77
2021/11/24 07:54:29;;;;;;;54.83;34.08;;;;;;;7.29;85.86;101536.34;5040900;28;20156;-77
2021/11/24 07:56:55;;;;;;;46.72;30.52;;;;;;;7.29;86.37;101529.34;5044973;28;20391;-77
2021/11/24 07:59:20;;;;;;;41.35;24.73;;;;;;;7.33;86.25;101540.81;5037514;28;20041;-76
2021/11/24 08:01:45;;;;;;;42.60;25.85;;;;;;;7.35;85.89;101533.84;5045219;28;20040;-77
2021/11/24 08:04:11;;;;;;;37.67;24.75;;;;;;;7.39;85.82;101536.59;5040169;28;20033;-76
2021/11/24 08:06:36;;;;;;;37.65;24.17;;;;;;;7.50;85.93;101533.31;5043997;28;20063;-75
2021/11/24 08:09:03;;;;;;;36.83;23.30;;;;;;;7.59;85.23;101530.88;5042387;28;20129;-76
2021/11/24 08:11:28;;;;;;;47.05;29.98;;;;;;;7.55;85.16;101537.81;5043132;28;20090;-75
2021/11/24 08:13:54;;;;;;;39.33;25.27;;;;;;;7.58;85.32;101531.75;5044426;28;20033;-77
2021/11/24 08:16:19;;;;;;;40.92;25.45;;;;;;;7.59;84.94;101534.41;5042857;28;20037;-76
2021/11/24 08:18:44;;;;;;;36.45;23.40;;;;;;;7.66;84.81;101525.81;5040421;28;20465;-76
2021/11/24 08:21:10;;;;;;;41.25;24.40;;;;;;;7.71;84.37;101525.91;5043808;28;20044;-76
2021/11/24 08:23:35;;;;;;;39.58;24.90;;;;;;;7.76;84.36;101521.63;5039958;28;20041;-76
2021/11/24 08:26:01;;;;;;;37.33;23.17;;;;;;;7.73;84.54;101526.84;5044138;28;20039;-76
2021/11/24 08:28:26;;;;;;;37.22;23.67;;;;;;;7.71;84.49;101522.41;5041093;28;20124;-76
2021/11/24 08:30:51;;;;;;;38.13;23.30;;;;;;;7.67;84.64;101518.81;5044898;28;20057;-76
2021/11/24 08:33:17;;;;;;;37.70;22.92;;;;;;;7.68;84.15;101525.84;5040921;28;20037;-75
2021/11/24 08:35:43;;;;;;;37.90;23.40;;;;;;;7.68;84.87;101525.84;5044021;28;20087;-75
2021/11/24 08:38:09;;;;;;;35.50;22.33;;;;;;;7.74;84.55;101528.59;5038618;28;20448;-76
2021/11/24 08:40:34;;;;;;;35.22;22.10;;;;;;;7.76;83.99;101520.75;5042053;28;20040;-76
2021/11/24 08:43:01;;;;;;;36.08;22.05;;;;;;;7.92;84.01;101517.59;5039548;28;20036;-76
2021/11/24 08:45:26;;;;;;;37.08;23.02;;;;;;;7.89;83.70;101513.16;5034863;28;20392;-76
2021/11/24 08:47:52;;;;;;;37.40;23.00;;;;;;;7.96;83.36;101515.91;5038297;28;20043;-76
2021/11/24 08:50:18;;;;;;;35.60;22.40;;;;;;;7.86;82.95;101512.22;5036056;28;20399;-76
2021/11/24 08:52:44;;;;;;;41.63;23.75;;;;;;;7.81;83.41;101509.47;5042182;28;20078;-76
2021/11/24 08:55:11;;;;;;;38.10;23.45;;;;;;;7.90;83.66;101509.66;5043099;28;20121;-76
2021/11/24 08:57:37;;;;;;;36.05;22.15;;;;;;;7.85;82.88;101515.69;5041059;28;20055;-76
2021/11/24 09:00:10;;;;;;;37.28;22.52;;;;;;;7.88;83.02;101506.09;5044031;28;20041;-76
2021/11/24 09:02:35;;;;;;;41.85;25.00;;;;;;;7.87;83.29;101508.72;5041264;28;20030;-75
2021/11/24 09:05:02;;;;;;;37.90;22.20;;;;;;;7.93;82.63;101513.22;5042161;28;20044;-76
2021/11/24 09:07:28;;;;;;;39.05;24.48;;;;;;;8.02;83.15;101503.78;5030248;28;20034;-76
2021/11/24 09:09:53;;;;;;;37.95;23.55;;;;;;;8.08;82.76;101503.88;5043709;28;20086;-76
2021/11/24 09:12:18;;;;;;;38.55;24.45;;;;;;;8.20;82.37;101504.97;5040082;28;20120;-77
2021/11/24 09:14:44;;;;;;;41.03;25.83;;;;;;;8.26;82.40;101503.34;5043417;28;20041;-75
2021/11/24 09:17:09;;;;;;;41.58;24.33;;;;;;;8.44;81.77;101507.22;5039989;28;20025;-77
2021/11/24 09:19:34;;;;;;;39.80;24.38;;;;;;;8.44;81.01;101504.59;5044399;28;20403;-75
2021/11/24 09:22:00;;;;;;;37.53;23.30;;;;;;;8.39;81.09;101495.69;5046769;28;20065;-76
2021/11/24 09:24:26;;;;;;;37.05;22.85;;;;;;;8.45;80.66;101503.72;5045502;28;20036;-76
2021/11/24 09:27:17;;;;;;;35.97;21.88;;;;;;;8.41;79.81;101488.72;5042025;28;20036;-76
2021/11/24 09:29:46;;;;;;;32.58;20.63;;;;;;;8.47;80.27;101486.22;5037022;28;20056;-76
2021/11/24 09:32:12;;;;;;;32.38;21.42;;;;;;;8.51;80.42;101488.03;5042337;28;20600;-76
2021/11/24 09:34:37;;;;;;;37.67;22.67;;;;;;;8.57;79.99;101488.16;5040263;28;20052;-76
2021/11/24 09:37:03;;;;;;;36.92;22.48;;;;;;;8.56;79.71;101491.63;5042977;28;20399;-76
2021/11/24 09:39:28;;;;;;;37.30;23.00;;;;;;;8.46;80.20;101487.06;5036572;28;20072;-76
2021/11/24 09:41:57;;;;;;;33.13;21.42;;;;;;;8.54;79.98;101488.09;5039883;28;20502;-76
2021/11/24 09:44:23;;;;;;;33.47;21.50;;;;;;;8.73;79.97;101478.78;5035638;28;20122;-76
2021/11/24 09:46:50;;;;;;;33.92;21.02;;;;;;;8.91;79.33;101472.94;5041182;28;20624;-76
2021/11/24 09:49:18;;;;;;;31.63;19.63;;;;;;;9.00;78.28;101473.06;5043028;28;20186;-76
2021/11/24 09:51:44;;;;;;;30.10;19.48;;;;;;;8.92;78.75;101472.06;5039677;28;20029;-75
2021/11/24 09:54:12;;;;;;;27.83;18.30;;;;;;;8.84;77.82;101474.56;5039085;28;20041;-76
2021/11/24 09:56:40;;;;;;;28.65;19.48;;;;;;;8.87;78.28;101465.84;5042574;28;20558;-76
2021/11/24 09:59:08;;;;;;;29.92;20.45;;;;;;;8.84;78.36;101473.69;5040069;28;20037;-75
2021/11/24 10:01:34;;;;;;;32.90;22.05;;;;;;;8.73;78.44;101474.41;5042627;28;20037;-76
2021/11/24 10:04:00;;;;;;;30.58;20.90;;;;;;;8.82;78.74;101456.97;5039835;28;20037;-76
2021/11/24 10:06:27;;;;;;;33.45;21.75;;;;;;;8.89;78.01;101461.50;5037125;28;20057;-76
2021/11/24 10:08:53;;;;;;;29.90;19.45;;;;;;;8.86;78.66;101458.81;5036496;28;20029;-76
2021/11/24 10:11:19;;;;;;;35.08;21.55;;;;;;;8.83;78.80;101453.47;5029517;28;20544;-76
2021/11/24 10:13:47;;;;;;;29.08;19.75;;;;;;;8.96;78.36;101452.81;5037704;28;20063;-76
2021/11/24 10:16:39;;;;;;;27.67;19.30;;;;;;;8.97;76.58;101449.31;5040984;28;20041;-76
2021/11/24 10:19:09;;;;;;;29.17;19.42;;;;;;;8.95;77.28;101448.41;5036707;28;20153;-76
2021/11/24 10:21:51;;;;;;;26.77;18.58;;;;;;;8.99;76.20;101439.72;5041467;28;20076;-76
2021/11/24 10:24:36;;;;;;;29.25;18.85;;;;;;;8.98;76.48;101435.28;5042317;28;20132;-76
2021/11/24 10:27:04;;;;;;;31.40;19.80;;;;;;;9.09;76.84;101438.06;5038710;28;20037;-77
2021/11/24 10:29:30;;;;;;;30.08;18.95;;;;;;;9.19;76.78;101426.81;5039170;28;20029;-76
2021/11/24 10:32:08;;;;;;;28.48;19.02;;;;;;;9.33;76.15;101427.03;5038870;28;20083;-77
2021/11/24 10:34:34;;;;;;;28.77;19.45;;;;;;;9.34;76.03;101421.75;5043963;28;20060;-75
2021/11/24 10:37:08;;;;;;;28.48;19.52;;;;;;;9.32;75.91;101422.59;5043583;28;20037;-76
2021/11/24 10:39:38;;;;;;;31.67;21.73;;;;;;;9.35;75.94;101422.63;5048409;28;20033;-76
2021/11/24 10:42:29;;;;;;;32.22;21.85;;;;;;;9.41;76.63;101414.81;5043129;28;20064;-76
2021/11/24 10:44:55;;;;;;;33.22;22.27;;;;;;;9.34;75.49;101407.69;5032335;28;20503;-76
2021/11/24 10:47:22;;;;;;;32.45;22.15;;;;;;;9.20;76.01;101410.16;5037267;28;20401;-76
2021/11/24 10:49:52;;;;;;;29.95;20.75;;;;;;;9.21;76.30;101404.91;5041074;28;20113;-75
2021/11/24 10:52:25;;;;;;;28.48;19.40;;;;;;;9.26;76.04;101407.59;5043773;28;20044;-76
2021/11/24 10:55:04;;;;;;;33.00;20.27;;;;;;;9.38;75.86;101401.63;5040069;28;20037;-76
2021/11/24 10:57:31;;;;;;;29.45;21.05;;;;;;;9.46;75.63;101405.22;5036942;28;20040;-76
2021/11/24 11:00:05;;;;;;;30.88;21.02;;;;;;;9.50;74.53;101396.47;5039575;28;20492;-76
2021/11/24 11:02:34;;;;;;;29.58;20.55;;;;;;;9.56;74.06;101393.94;5043546;28;20397;-76
2021/11/24 11:05:07;;;;;;;27.10;19.63;;;;;;;9.70;74.28;101388.81;5042286;28;20041;-76
2021/11/24 11:07:42;;;;;;;30.05;20.20;;;;;;;9.76;74.06;101382.72;5037868;28;20037;-75
2021/11/24 11:10:22;;;;;;;29.27;20.63;;;;;;;9.78;73.59;101378.34;5031633;28;20038;-76
2021/11/24 11:12:59;;;;;;;28.50;20.30;;;;;;;9.79;73.93;101382.75;5033004;28;20021;-76
2021/11/24 11:15:37;;;;;;;24.92;18.70;;;;;;;9.75;73.84;101375.69;5032908;28;20060;-77